Bargas, Spain
Current Conditions -  °F | °C
As of 8:00 PM on Saturday 25 Oct 2014 (Local Time) from LEGT Reporting Station
Clear Clear  
Wind Chill: 72°   Ceiling: Unl
Heat Index: 72°   Visibility: 6mi
Dew Point: 41°   Wind: 0mph
Humidity: 33%   Direction: NA
Pressure: 30.15"   Gusts: NA
Location:  39.94°N, 4.02°W
Report Text: LEGT 251800Z 00000KT CAVOK 22/05 Q1021
Loading
Personal Weather Stations






























Interactive Weather Map
Tropical Storm Tracking
New forecast layout! Learn more

10-Day Weather Forecast

Advertisements
Track Severe Weather on mobile